Shaw Air Force Base
KSSC : now visible

Airfield :











YOU CAN JOIN US ON...

 
LOGIN :

Register | Disclaimer

   EN    FR    IT 

 









Legend :    VFR   Marginal VFR   IFR   Intensive IFR   Very Intensive IFR
Visi :
Ceiling :
>= 8 km
>= 3000ft
5 to 8 km
1000 to 3000 ft
1500m to 5 km
500 to 1000 ft
800 to 1500m
200 to 500 ft
< 800m
< 200 ft
Symbols :   Thunderstorms  Fog  Heavy snow  Heavy precipitations  Wind > 20 kt






- Airport Elevation : 241 ft


KSSC - Shaw Air Force Base

CURRENT METAR :
  • 050756Z AUTO 35005KT 10SM OVC060 21/19 A3007 RMK AO2 SLP182 T02140191 $

EXPIRED METARs :
  • 050656Z AUTO 01003KT 10SM SCT060 20/19 A3007 RMK AO2 SLP182 T02020188 $
  • 050636Z AUTO 00000KT 10SM SCT028 BKN060 21/19 A3007 RMK AO2 SLP182 $
  • 050606Z AUTO 03003KT 10SM BKN028 OVC060 21/19 A3008 RMK AO2 CIG 023V030 SLP186 $
  • 050556Z AUTO 03003KT 10SM BKN023 BKN028 OVC060 21/20 A3008 RMK AO2 CIG 019V025 CIG 020 RWY22 SLP186 T02110196 10236 20201 51005 $
  • 050521Z AUTO 00000KT 10SM BKN022 21/19 A3008 RMK AO2 BKN V FEW SLP186 $

TAF TAF KSSC
Valid from the 05 at 07:00 until the 06 at 13:00 UTC


050700Z 0507/0613 03006KT 9999 BKN030 OVC060 QNH3003INS
BECMG 0512/0513 04006KT 9999 BKN015 QNH3003INS
BECMG 0514/0515 04009KT 9999 SCT040 BKN055 QNH3004INS TX29/0519Z TN19/0509Z
KZJX FIR / North America



MET'MAP, your aeronautical weather chart ! - Copyright ORBIFLY December 2007 - Disclaimer

ORBIFLY MET'MAP TEAM :

Programming & Development : Alexandra Zaïnal
Concept & original design : Baudouin d'Aumeries
Assistance for programming : Marc-Olivier Méhu
Technical & hardware support : Manuel Goepfert

Contact : metmap@orbifly.com




SOURCES & CREDITS :

   NOAA       Earth
Advisory